Date,TemperatureHighF,TemperatureAvgF,TemperatureLowF,DewpointHighF,DewpointAvgF,DewpointLowF,HumidityHigh,HumidityAvg,HumidityLow,PressureMaxIn,PressureMinIn,WindSpeedMaxMPH,WindSpeedAvgMPH,GustSpeedMaxMPH,PrecipitationSumIn
2012-1-1,32.0,27.7,22.6,31.0,26.8,21.9,97,97,96,30.36,30.19,0,0,0,0.08
2012-1-2,28.2,24.5,19.9,27.2,23.6,19.0,97,96,95,30.19,29.89,0,0,0,0.04
2012-1-3,33.8,29.3,23.5,32.6,28.4,22.8,97,96,96,30.19,30.01,3,0,3,0.08
2012-1-4,34.9,32.9,31.3,33.9,32.0,30.3,97,96,96,30.13,29.86,8,0,8,0.12
2012-1-5,37.9,34.1,31.1,34.6,31.7,29.0,97,91,72,30.13,29.92,10,2,10,0.04
2012-1-6,34.5,31.1,27.1,31.2,28.2,24.6,95,89,72,30.13,30.01,8,0,8,0.00
2012-1-7,33.3,27.4,22.1,30.5,24.8,20.4,94,90,84,30.22,30.07,5,0,5,0.00
2012-1-8,35.4,30.3,26.8,32.3,27.8,25.0,94,90,84,30.19,30.13,6,0,6,0.00
2012-1-9,34.3,30.5,26.6,33.1,29.2,24.9,96,95,93,30.16,29.95,6,0,6,0.00
2012-1-10,35.8,29.7,21.9,32.2,23.1,16.8,96,78,51,30.39,29.95,11,1,11,0.00
2012-1-11,25.3,18.0,11.7,18.8,12.2,5.9,87,78,65,30.42,30.30,0,0,0,0.00
2012-1-12,24.4,16.5,10.2,18.0,10.1,4.5,89,76,64,30.33,30.16,0,0,0,0.00
2012-1-13,24.3,15.7,9.7,20.5,11.3,5.3,90,82,75,30.19,29.89,0,0,0,0.00
2012-1-14,29.5,21.6,14.9,27.7,19.4,12.0,95,91,86,29.89,29.57,0,0,0,0.08
2012-1-15,26.2,20.1,13.5,24.8,18.3,11.4,94,93,91,29.80,29.71,0,0,0,0.16
2012-1-16,25.0,19.1,12.7,22.7,17.0,10.9,93,92,90,29.83,29.71,0,0,0,0.08
2012-1-17,25.9,23.1,21.2,24.6,21.8,19.6,96,95,92,29.71,29.51,0,0,0,0.94
2012-1-18,21.2,17.1,13.6,20.2,15.4,11.5,96,93,91,29.74,29.59,0,0,0,0.39
2012-1-19,13.8,11.7,9.5,11.7,9.6,7.4,91,91,91,29.65,29.48,0,0,0,0.00
2012-1-20,17.1,14.3,11.7,15.1,11.9,9.6,92,90,88,29.68,29.15,0,0,0,0.00
2012-1-21,33.6,27.0,17.1,32.6,25.7,15.1,97,95,92,29.65,29.09,9,1,9,1.93
2012-1-22,28.2,25.8,21.7,27.5,24.9,20.8,97,96,96,29.71,29.51,0,0,0,0.67
2012-1-23,32.4,23.4,18.3,31.4,22.4,17.1,97,96,95,29.92,29.62,8,0,8,0.12
2012-1-24,27.9,23.6,22.5,26.7,22.6,21.5,97,96,95,29.92,29.62,0,0,0,0.79
2012-1-25,33.3,31.7,27.9,32.2,30.7,26.9,96,96,95,30.04,29.65,4,0,4,0.91
2012-1-26,32.7,29.6,21.9,31.7,27.5,20.0,97,92,79,30.30,29.77,10,0,10,0.04
2012-1-27,29.7,21.5,13.8,26.9,19.4,11.9,94,91,85,30.39,30.22,8,0,8,0.39
2012-1-28,34.3,26.9,20.3,32.1,24.8,18.9,95,92,81,30.22,29.95,8,0,8,0.00
2012-1-29,36.9,33.6,27.9,35.8,32.6,26.6,96,96,94,29.95,29.62,8,0,8,0.39
2012-1-30,41.2,35.0,29.8,36.8,31.3,27.8,97,87,61,29.86,29.62,14,2,17,0.31
2012-1-31,40.6,33.2,29.1,36.1,30.5,27.4,95,90,69,29.89,29.80,8,1,8,0.39
2012-2-1,40.3,33.1,27.0,37.4,29.8,23.9,95,88,63,30.22,29.74,11,1,11,0.39
2012-2-2,38.5,28.6,23.0,30.5,23.1,20.2,92,81,50,30.27,30.22,6,0,6,0.39
2012-2-3,38.5,26.3,20.1,31.0,21.5,18.2,94,83,57,30.24,30.16,8,1,8,0.00
2012-2-4,39.2,26.2,20.3,32.2,22.0,18.1,94,85,59,30.22,30.16,8,0,8,0.00
2012-2-5,38.5,25.0,18.1,35.0,21.8,16.2,94,88,68,30.19,30.10,6,0,6,0.00
2012-2-6,39.9,25.7,18.1,32.5,20.8,16.2,94,83,50,30.13,30.04,8,0,8,0.00
2012-2-7,39.7,28.5,21.4,30.6,22.3,18.9,92,79,51,30.04,29.92,6,1,10,0.00
2012-2-8,36.9,32.0,27.5,34.8,29.8,22.7,95,91,82,30.19,29.98,6,0,6,0.04
2012-2-9,35.4,33.2,32.2,34.0,31.8,30.9,96,94,91,30.22,30.07,5,0,5,0.39
2012-2-10,36.9,33.4,32.4,35.6,32.2,31.1,96,95,95,30.10,29.92,0,0,0,0.39
2012-2-11,38.3,34.1,30.4,37.0,33.0,29.4,96,96,95,29.95,29.89,6,0,6,0.00
2012-2-12,38.8,31.9,26.8,37.3,30.5,26.0,97,94,89,29.92,29.68,6,0,6,0.39
2012-2-13,41.9,33.5,28.6,38.3,31.2,26.6,96,91,81,29.83,29.71,8,0,8,0.39
2012-2-14,36.7,30.6,26.8,34.8,28.6,25.3,95,92,85,29.95,29.71,6,0,6,0.00
2012-2-15,39.6,29.2,22.8,30.7,25.4,21.6,95,86,58,30.13,29.95,9,0,9,0.39
2012-2-16,35.1,30.3,25.3,32.8,28.3,22.6,95,92,89,30.13,30.01,3,0,3,0.00
2012-2-17,33.3,30.9,28.6,32.0,29.6,27.3,96,95,94,30.10,29.71,0,0,0,0.08
2012-2-18,34.7,31.8,28.4,33.4,30.8,27.4,96,96,95,29.80,29.71,0,0,0,0.35
2012-2-19,34.3,31.3,26.4,33.3,30.2,25.4,97,96,94,29.83,29.74,4,0,4,0.00
2012-2-20,35.6,30.4,24.4,34.1,29.2,23.5,96,95,93,29.83,29.71,0,0,0,0.00
2012-2-21,40.6,35.9,32.0,38.7,34.5,30.7,96,94,88,29.86,29.77,13,3,13,0.51
2012-2-22,35.1,33.3,32.5,34.0,32.2,31.5,96,96,95,30.01,29.65,16,1,16,1.14
2012-2-23,38.3,32.6,29.5,36.3,31.0,28.7,97,94,77,30.13,30.01,11,1,11,0.00
2012-2-24,35.6,32.6,30.6,33.1,30.9,29.0,95,93,88,30.07,29.42,5,0,5,0.16
2012-2-25,34.9,31.0,27.0,32.1,28.8,23.3,96,92,84,29.89,29.39,9,0,9,0.04
2012-2-26,35.2,28.1,23.4,26.6,22.7,19.1,89,81,56,29.98,29.86,10,0,10,0.00
2012-2-27,34.0,25.3,19.0,24.6,19.6,15.4,91,80,52,30.01,29.83,6,1,6,0.00
2012-2-28,28.9,23.4,16.7,24.4,18.8,14.0,92,83,60,29.83,29.45,0,0,0,0.00
2012-2-29,31.3,27.1,22.6,29.0,25.1,20.9,94,92,89,29.57,29.42,0,0,0,0.20
2012-3-1,36.9,27.0,18.7,32.8,24.3,17.0,95,90,76,30.07,29.57,9,1,9,0.00
2012-3-2,39.0,33.4,25.7,32.1,27.5,23.4,92,79,62,30.13,30.04,13,3,13,0.00
2012-3-3,43.7,40.3,36.0,36.1,33.6,30.8,86,77,71,30.10,30.01,14,4,14,0.00
2012-3-4,49.3,38.9,33.3,36.4,31.7,25.8,93,76,51,30.10,29.77,15,2,15,0.00
2012-3-5,41.0,34.8,27.9,35.5,27.5,16.4,89,75,53,29.77,29.48,11,2,11,0.00
2012-3-6,38.8,28.6,21.2,23.8,18.3,13.8,91,68,40,30.07,29.62,15,1,15,0.00
2012-3-7,42.4,30.7,21.4,26.8,19.0,10.2,84,63,44,30.24,30.07,13,1,13,0.00
2012-3-8,45.5,31.6,22.8,31.5,24.4,20.6,91,77,44,30.24,30.10,8,0,8,0.00
2012-3-9,50.0,35.2,26.8,36.4,28.8,24.2,92,79,44,30.10,29.77,11,0,11,0.00
2012-3-10,44.8,36.4,33.3,37.3,32.9,30.9,94,87,70,29.77,29.51,8,0,8,0.00
2012-3-11,40.1,34.1,27.0,34.6,28.0,20.8,95,80,53,29.59,29.36,13,1,13,0.00
2012-3-12,32.2,28.7,23.5,30.7,26.5,20.5,95,91,84,29.59,29.15,0,0,0,0.55
2012-3-13,35.2,30.5,25.2,32.8,28.4,23.9,96,92,84,29.71,29.12,6,0,6,0.28
2012-3-14,31.6,28.1,22.8,28.8,26.0,21.4,95,92,85,29.71,29.65,0,0,0,0.12
2012-3-15,37.4,32.9,29.7,35.9,31.6,28.4,96,95,94,29.68,29.48,4,0,5,0.31
2012-3-16,41.0,34.6,32.0,39.2,31.7,27.5,96,90,62,29.54,29.30,9,0,9,0.00
2012-3-17,39.2,33.5,27.7,37.1,30.4,24.7,95,88,68,29.48,29.21,13,1,13,0.28
2012-3-18,43.0,31.3,23.0,30.6,23.8,20.2,93,76,42,29.57,29.42,8,1,8,0.00
2012-3-19,43.9,31.9,23.2,23.1,19.0,13.6,77,60,34,29.68,29.57,9,1,12,0.00
2012-3-20,34.0,31.4,29.5,32.2,28.6,23.1,94,89,73,29.74,29.39,0,0,0,0.35
2012-3-21,37.4,30.6,24.3,34.8,28.8,23.0,95,93,87,29.83,29.65,3,0,3,0.00
2012-3-22,42.1,32.7,28.0,34.3,29.1,25.2,95,87,60,29.86,29.62,9,0,9,0.04
2012-3-23,47.5,32.3,22.1,32.8,24.3,20.4,94,76,37,29.98,29.80,9,1,9,0.00
2012-3-24,48.0,33.7,25.3,32.3,25.7,22.4,89,75,40,29.95,29.80,8,1,8,0.00
2012-3-25,44.8,34.0,27.3,35.1,29.5,24.8,93,84,60,29.80,29.57,7,0,8,0.00
2012-3-26,49.1,37.0,30.9,35.9,31.0,27.1,95,80,47,29.65,29.54,10,1,10,0.00
2012-3-27,36.9,33.3,29.5,35.0,31.2,26.4,95,92,86,29.68,29.54,3,0,3,0.20
2012-3-28,43.2,36.3,33.3,41.3,34.6,31.9,96,93,88,29.68,29.48,6,0,7,0.12
2012-3-29,38.1,34.7,32.7,36.8,33.4,31.5,96,95,95,29.62,29.33,4,0,4,0.63
2012-3-30,43.0,35.4,32.7,41.0,34.1,31.3,96,95,93,29.57,29.33,12,0,12,0.39
2012-3-31,38.1,33.9,32.0,36.5,32.6,30.7,96,95,94,29.54,29.33,0,0,0,0.28
2012-4-1,43.3,35.1,30.0,38.4,30.8,26.0,96,86,56,29.98,29.39,10,0,12,0.08
2012-4-2,46.8,35.7,29.1,37.2,30.1,27.5,95,82,52,30.13,29.95,8,0,8,0.39
2012-4-3,48.0,37.3,32.4,36.3,30.4,24.2,94,77,56,29.95,29.65,10,0,10,0.00
2012-4-4,46.4,36.6,30.0,28.7,24.9,19.6,86,65,39,29.86,29.71,17,2,17,0.39
2012-4-5,47.8,34.9,27.0,30.2,24.5,20.6,89,68,37,29.95,29.83,8,0,8,0.39
2012-4-6,39.9,34.3,30.4,38.1,32.1,28.6,94,91,84,30.10,29.92,6,0,6,0.12
2012-4-7,47.5,35.4,28.6,36.3,28.4,25.1,94,78,44,30.13,30.07,8,0,8,0.00
2012-4-8,53.6,37.7,27.9,32.7,26.4,22.2,86,67,30,30.13,29.98,9,0,9,0.12
2012-4-9,61.7,41.5,30.6,38.0,30.1,26.6,88,68,30,29.98,29.77,8,0,8,0.12
2012-4-10,55.9,40.8,33.1,43.7,34.2,29.8,90,78,49,29.77,29.62,3,0,3,0.00
2012-4-11,51.3,40.1,32.4,40.0,35.3,30.4,94,84,61,29.65,29.42,10,0,10,0.12
2012-4-12,38.7,36.4,34.2,36.6,34.4,32.3,93,92,91,29.57,29.54,9,0,9,0.00
2012-4-22,76.6,63.8,45.9,47.6,44.5,39.9,80,53,32,29.86,29.74,8,2,8,0.00
2012-4-23,79.0,56.8,39.9,52.0,42.1,36.4,91,63,28,29.80,29.65,8,1,8,0.00
2012-4-24,61.9,52.6,43.5,48.1,42.6,39.0,87,70,53,29.71,29.68,11,2,11,0.00
2012-4-25,63.5,50.1,41.7,50.6,44.5,38.1,93,82,51,29.71,29.51,6,0,6,0.24
2012-4-26,48.6,43.3,37.4,45.2,39.2,31.5,94,86,62,29.77,29.42,11,2,13,0.43
2012-4-27,53.8,42.4,34.0,34.3,30.9,27.3,91,66,39,30.07,29.77,11,2,11,0.00
2012-4-28,64.0,48.1,35.4,38.7,35.7,30.9,89,66,37,30.07,29.98,9,1,9,0.00
2012-4-29,64.4,49.3,35.8,44.3,36.7,33.4,93,66,36,29.98,29.62,12,2,12,0.00
2012-4-30,56.5,46.1,39.0,42.2,37.5,32.0,92,73,49,29.65,29.48,13,2,13,0.00
2012-5-1,53.1,43.1,35.8,33.5,28.8,25.0,86,59,38,29.74,29.65,12,3,12,0.00
2012-5-2,57.4,44.3,32.2,32.6,28.9,25.7,86,58,33,29.77,29.62,9,1,9,0.00
2012-5-3,45.7,41.5,37.9,42.9,37.3,30.4,94,85,66,29.71,29.51,9,0,9,0.12
2012-5-4,52.9,43.0,34.9,38.3,32.2,27.5,94,68,41,30.07,29.71,13,2,13,0.00
2012-5-5,54.1,41.3,30.6,33.1,28.1,25.8,90,63,37,30.24,30.07,14,3,14,0.00
2012-5-6,63.9,45.5,29.5,34.7,30.1,25.8,89,60,27,30.27,30.19,8,1,8,0.00
2012-5-7,68.4,50.7,34.0,42.3,36.1,30.5,90,62,32,30.22,30.01,8,1,8,0.00
2012-5-8,71.2,55.0,38.7,45.0,37.9,34.5,88,57,30,30.01,29.83,15,2,15,0.00
2012-5-9,53.4,46.0,34.0,38.5,24.8,17.5,61,44,28,30.04,29.86,15,4,15,0.00
2012-5-10,54.7,42.1,31.1,27.3,23.7,19.4,72,49,33,30.13,30.04,15,2,15,0.00
2012-5-11,64.4,45.5,28.4,31.4,26.9,22.9,81,53,24,30.16,30.01,9,1,9,0.00
2012-5-12,71.1,51.4,32.2,37.0,31.2,26.3,84,52,23,30.16,30.04,9,2,9,0.00
2012-5-13,79.9,56.5,36.3,41.9,36.5,30.5,85,53,21,30.10,29.92,8,1,8,0.00
2012-5-14,85.5,60.9,39.9,45.7,40.0,33.6,84,52,21,30.01,29.83,8,1,8,0.00
2012-5-15,81.9,61.4,43.3,45.5,39.6,35.5,82,50,21,29.89,29.80,11,2,11,0.00
2012-5-16,69.4,57.2,48.4,43.0,37.9,33.9,69,50,32,29.86,29.80,17,2,17,0.00
2012-5-17,63.1,49.6,37.9,39.7,31.9,25.0,88,55,30,29.83,29.74,14,2,14,0.00
2012-5-18,46.9,37.1,33.8,35.0,29.9,27.2,84,75,61,29.92,29.83,8,0,8,0.00
2012-5-28,67.1,57.1,47.3,43.3,36.7,34.6,77,48,35,29.89,29.83,13,3,13,0.00
2012-5-29,58.5,49.8,40.3,37.0,34.1,30.8,78,56,38,29.98,29.89,13,2,13,0.00
2012-5-30,66.2,54.3,42.8,47.7,39.4,31.6,82,58,41,30.04,29.95,10,1,10,0.00
2012-5-31,69.6,58.6,52.0,51.3,47.7,42.4,85,69,44,30.01,29.89,13,2,13,0.00
2012-6-1,72.1,58.9,49.3,56.7,50.3,45.0,90,74,50,29.89,29.71,12,1,12,0.00
2012-6-2,65.1,55.4,47.7,46.2,41.3,36.3,73,60,41,29.80,29.68,13,2,13,0.00
2012-6-3,62.8,51.7,45.1,40.1,36.5,32.4,77,58,34,29.80,29.77,13,1,13,0.00
2012-6-4,54.0,49.0,44.1,51.2,44.8,34.5,93,86,64,29.77,29.54,4,0,4,0.08
2012-6-5,54.1,47.4,41.2,46.6,40.8,34.1,94,80,50,29.95,29.59,17,2,17,0.12
2012-6-6,52.9,46.2,37.4,36.9,32.7,29.4,82,60,41,29.95,29.89,15,4,17,0.00
2012-6-7,48.4,41.3,32.9,46.2,39.1,30.0,95,92,83,29.92,29.77,6,0,6,0.47
2012-6-8,55.6,44.5,34.2,47.5,38.1,33.1,96,80,47,29.83,29.74,11,1,11,0.00
2012-6-9,53.6,47.2,39.2,39.5,37.6,35.4,88,70,54,29.98,29.80,15,3,15,0.00
2012-6-10,67.8,54.7,45.1,43.9,39.7,37.3,79,59,37,30.04,29.98,15,3,15,0.00
2012-6-11,75.9,56.9,36.7,47.5,40.7,33.5,91,60,26,30.04,29.89,9,1,9,0.00
2012-6-12,69.3,59.4,52.9,52.5,48.7,45.4,86,68,47,29.92,29.80,10,2,10,0.00
2012-6-13,63.5,55.3,43.5,46.8,40.2,36.1,75,58,40,29.95,29.80,11,3,14,0.00
2012-6-14,66.9,51.3,40.5,42.0,37.2,34.2,85,61,35,29.95,29.83,13,2,13,0.00
2012-6-15,73.4,54.7,35.2,42.3,36.7,31.6,90,57,24,30.04,29.95,9,1,9,0.00
2012-6-16,72.5,61.3,53.2,56.7,50.7,42.0,81,69,52,30.04,29.77,11,2,11,0.00
2012-6-17,69.8,60.4,51.6,52.1,46.1,41.4,75,60,40,29.77,29.68,17,4,17,0.00
2012-6-18,61.5,52.7,44.2,41.8,38.3,35.4,76,59,42,29.83,29.62,20,4,20,0.00
2012-6-19,66.0,53.1,42.3,41.9,38.8,36.9,85,61,36,30.01,29.83,13,2,13,0.00
2012-6-20,73.6,56.5,38.7,47.5,40.9,35.4,91,61,32,30.04,29.86,10,2,10,0.00
2012-6-21,79.3,61.3,44.2,53.4,46.0,38.8,86,61,31,29.86,29.62,8,0,8,0.00
2012-6-22,61.2,56.6,51.4,56.1,50.2,46.4,92,80,66,29.65,29.57,12,1,12,0.16
2012-6-23,66.0,53.6,45.5,56.6,48.8,41.6,93,84,63,29.80,29.57,10,1,10,0.00
2012-6-24,66.9,52.6,43.5,57.3,45.1,40.4,93,78,44,29.92,29.74,10,1,10,0.08
2012-6-25,69.4,52.5,43.0,51.7,45.4,39.9,92,79,42,29.89,29.74,11,1,11,0.08
2012-6-26,50.4,48.3,46.4,46.6,45.2,42.1,93,89,78,29.92,29.71,11,2,11,0.08
2012-6-27,70.2,54.5,38.3,48.4,42.3,36.5,94,68,33,29.92,29.83,8,1,8,0.00
2012-6-28,78.1,59.4,43.2,55.5,47.6,40.4,92,70,32,29.89,29.77,8,1,8,0.00
2012-6-29,70.7,62.5,52.7,55.3,51.4,47.7,87,68,50,29.92,29.86,12,2,12,0.00
2012-6-30,76.6,63.7,54.3,56.2,52.6,49.1,88,69,42,29.89,29.74,12,2,12,0.00
2012-7-1,73.9,60.9,52.3,54.9,47.5,41.3,90,65,37,29.86,29.80,11,2,11,0.00
2012-7-2,70.2,58.6,47.3,50.6,44.0,40.3,84,60,37,29.86,29.68,11,2,11,0.00
2012-7-3,62.6,55.6,50.0,45.2,41.9,37.3,78,61,45,29.92,29.65,12,4,12,0.00
2012-7-4,71.1,64.2,51.6,44.0,41.2,38.3,75,45,32,29.89,29.80,8,2,8,0.00
2012-7-5,81.3,61.1,43.5,51.5,44.2,39.4,91,60,28,29.92,29.83,10,1,10,0.00
2012-7-6,84.9,65.0,46.0,53.7,46.9,40.8,86,57,23,29.98,29.89,9,1,9,0.00
2012-7-7,91.4,69.7,51.3,58.5,51.4,44.9,87,58,22,30.01,29.89,8,1,8,0.00
2012-7-8,94.8,72.8,53.8,61.7,53.9,47.7,86,57,21,29.98,29.83,10,1,10,0.00
2012-7-9,95.0,75.2,58.8,65.3,57.7,50.2,90,61,23,29.98,29.83,10,1,10,0.00
2012-7-10,90.7,72.7,61.7,57.5,52.1,44.6,76,52,23,29.98,29.86,8,2,8,0.00
2012-7-11,92.8,70.1,50.2,56.4,50.5,44.3,85,55,19,29.92,29.80,8,1,8,0.00
2012-7-12,93.6,72.5,55.2,61.4,54.9,45.2,86,59,21,29.86,29.74,8,1,8,0.00
2012-7-13,83.3,70.4,61.7,67.4,59.0,54.8,82,68,40,29.86,29.77,7,1,7,0.00
2012-7-14,82.9,68.6,58.5,64.8,58.8,54.4,90,73,45,29.86,29.77,13,1,13,0.00
2012-7-15,77.2,65.4,55.8,59.5,52.2,43.3,84,65,33,29.77,29.68,15,3,15,0.00
2012-7-16,85.1,67.3,52.7,61.0,54.2,47.1,87,65,34,29.83,29.68,9,1,9,0.00
2012-7-17,75.6,67.7,61.9,68.6,62.8,58.0,91,85,66,29.80,29.71,14,0,14,0.20
2012-7-18,82.4,69.4,58.6,63.0,57.1,48.0,91,68,32,29.89,29.77,10,2,10,0.00
2012-7-19,89.2,69.7,54.9,67.0,57.4,50.6,89,68,29,29.92,29.80,8,1,8,0.00
2012-7-20,68.2,62.7,54.5,60.3,57.3,51.2,91,83,67,30.04,29.80,12,1,12,0.28
2012-7-21,77.9,62.0,49.5,57.4,52.3,47.5,93,74,40,30.07,29.92,8,1,9,0.00
2012-7-22,74.3,60.5,51.6,56.6,49.4,41.5,92,69,44,29.92,29.83,10,2,10,0.00
2012-7-23,65.7,55.4,47.3,45.9,42.8,39.1,78,63,46,30.07,29.89,13,3,13,0.00
2012-7-24,84.0,62.0,45.1,53.9,48.2,41.8,91,66,30,30.01,29.83,8,1,8,0.00
2012-7-25,87.3,67.8,51.6,59.8,52.8,48.3,91,64,28,29.92,29.80,9,1,9,0.00
2012-7-26,89.6,67.8,54.7,60.3,55.0,49.4,89,68,27,29.89,29.74,8,1,8,0.00
2012-7-27,80.4,65.5,56.3,57.1,52.1,46.9,90,65,34,29.92,29.80,11,2,11,0.00
2012-7-28,82.0,65.1,53.1,51.4,47.8,44.9,77,56,29,29.98,29.89,9,2,9,0.00
2012-7-29,86.5,67.1,54.9,56.7,51.4,48.0,81,60,28,29.98,29.89,8,1,10,0.00
2012-7-30,81.3,66.4,58.6,52.5,49.7,46.1,75,57,33,29.95,29.89,12,3,12,0.00
2012-7-31,80.2,64.2,52.5,51.8,47.5,44.3,80,57,32,29.98,29.92,11,2,11,0.00
2012-8-1,84.4,65.0,49.6,51.6,48.4,44.4,85,59,29,30.01,29.95,12,2,12,0.00
2012-8-2,79.5,65.7,57.4,51.8,47.9,44.2,72,54,34,29.98,29.92,13,3,13,0.00
2012-8-3,85.6,64.4,48.0,55.2,46.8,42.8,91,59,25,30.01,29.89,8,1,8,0.00
2012-8-4,89.8,68.7,51.1,56.1,49.7,44.5,84,56,27,29.95,29.83,9,1,9,0.00
2012-8-5,97.0,72.5,54.7,60.2,54.2,48.3,85,58,21,29.92,29.80,11,1,11,0.00
2012-8-6,88.2,72.6,63.5,66.2,57.1,48.8,83,61,29,29.98,29.89,10,1,10,0.00
2012-8-7,93.7,70.7,53.1,62.1,53.4,46.7,85,59,21,29.98,29.80,10,1,10,0.00
2012-8-8,81.1,69.2,60.1,56.8,50.4,44.8,71,53,30,30.04,29.86,12,3,12,0.00
2012-8-9,86.2,65.3,49.3,56.1,50.0,43.9,86,61,25,30.04,29.89,8,1,8,0.00
2012-8-10,86.4,68.3,56.5,54.5,51.2,44.4,78,58,25,29.95,29.83,9,2,9,0.00
2012-8-11,91.9,68.9,52.3,57.7,50.3,43.0,88,58,19,29.95,29.86,10,1,10,0.00
2012-8-12,93.6,70.7,53.2,59.0,50.8,43.8,86,57,19,29.95,29.80,8,1,8,0.00
2012-8-17,64.4,63.5,62.4,50.3,50.0,49.7,64,62,60,29.89,29.89,0,0,0,0.00
2012-8-18,94.3,70.9,53.1,57.7,50.2,43.5,83,54,19,29.92,29.77,10,1,10,0.00
2012-8-19,94.3,71.3,56.7,59.8,51.9,46.2,80,54,20,29.86,29.74,9,1,9,0.00
2012-8-20,80.2,68.4,57.9,54.8,48.6,41.9,77,52,28,29.86,29.80,9,1,9,0.00
2012-8-21,82.2,64.6,54.3,53.0,47.5,41.4,78,56,30,29.83,29.77,16,2,16,0.00
2012-8-22,77.5,61.5,51.6,46.8,44.6,41.8,76,56,32,29.89,29.83,10,2,10,0.00
2012-8-23,69.4,58.1,50.0,46.3,40.3,34.6,75,54,34,29.89,29.83,24,3,24,0.00
2012-8-24,73.9,56.7,42.8,44.5,39.3,35.0,83,55,31,30.01,29.89,11,1,11,0.00
2012-8-25,77.7,57.1,41.5,48.5,40.7,36.8,90,60,27,29.92,29.71,8,1,8,0.00
2012-8-26,81.1,61.9,44.8,54.3,44.3,36.8,82,56,26,29.77,29.62,9,1,10,0.00
2012-8-27,80.1,65.4,54.1,48.4,45.3,42.4,72,50,30,29.92,29.77,12,2,12,0.00
2012-8-28,75.6,60.6,51.8,54.3,45.2,36.3,83,59,38,29.92,29.80,13,2,13,0.00
2012-8-29,71.2,57.4,47.8,46.9,41.9,38.9,82,59,34,29.98,29.89,11,1,11,0.00
2012-8-30,75.6,56.1,40.3,50.3,42.9,37.5,92,66,31,29.92,29.74,8,1,8,0.00
2012-8-31,74.1,58.0,46.2,47.4,42.3,37.6,87,60,28,29.83,29.71,13,2,13,0.00
2012-9-1,72.1,57.0,44.1,43.1,39.5,37.0,82,55,32,29.95,29.83,17,3,17,0.00
2012-9-2,74.5,59.6,48.6,47.3,42.7,38.9,81,56,32,29.98,29.92,13,2,13,0.00
2012-9-3,77.5,58.7,44.2,50.1,44.8,40.3,90,64,31,30.01,29.89,9,1,9,0.00
2012-9-4,78.1,59.0,44.8,54.0,45.5,41.7,92,65,31,30.07,29.95,9,0,9,0.00
2012-9-5,79.3,60.1,45.7,54.7,46.1,42.0,91,64,30,30.01,29.80,10,1,10,0.00
2012-9-6,75.7,59.1,46.4,51.3,43.5,39.4,89,61,30,30.04,29.86,8,1,8,0.00
2012-9-7,80.1,59.0,43.3,52.1,41.1,37.8,87,57,23,30.10,30.01,8,1,8,0.00
2012-9-8,80.8,60.4,45.0,53.7,43.9,37.9,84,59,24,30.07,29.80,8,1,8,0.00
2012-9-9,68.4,60.1,56.8,55.7,47.9,40.5,91,66,39,29.83,29.74,17,3,17,0.00
2012-9-10,59.7,53.1,43.0,48.2,37.8,31.1,83,57,38,30.01,29.74,15,4,17,0.00
2012-9-11,66.0,47.1,32.5,39.8,33.1,28.4,89,62,29,30.13,30.01,10,1,10,0.00
2012-9-12,66.0,47.8,33.3,43.2,34.5,29.2,87,64,32,30.27,30.13,6,1,6,0.00
2012-9-13,70.3,50.4,35.6,45.6,36.2,31.0,88,63,28,30.24,30.07,7,1,7,0.00
2012-9-14,77.7,55.7,40.8,50.6,42.2,35.0,86,64,28,30.07,29.89,6,0,6,0.00
2012-9-15,78.1,59.5,45.5,53.2,43.3,38.9,84,58,30,30.04,29.92,13,1,13,0.00
2012-9-16,76.8,57.7,45.0,54.0,46.1,40.9,90,68,32,30.10,29.98,6,0,6,0.00
2012-9-17,77.7,57.2,44.1,53.3,44.7,40.0,89,67,27,30.07,29.95,6,0,6,0.00
2012-9-18,78.1,58.3,45.1,56.1,45.2,40.3,89,65,32,29.98,29.89,8,1,8,0.00
2012-9-19,81.5,59.2,45.5,51.3,42.9,37.9,84,58,25,30.01,29.95,6,0,6,0.00
2012-9-20,75.6,57.8,46.0,58.6,46.3,39.2,85,67,45,30.04,29.92,5,0,5,0.00
2012-9-21,78.3,58.1,46.0,56.3,46.8,40.4,87,68,30,29.98,29.86,6,0,6,0.00
2012-9-22,66.7,57.4,50.4,52.0,47.9,44.8,83,71,52,29.92,29.86,8,2,8,0.00
2012-9-23,69.1,55.3,44.4,59.4,49.5,41.5,92,81,65,29.98,29.92,6,0,6,0.00
2012-9-24,74.7,57.9,46.6,58.3,49.9,44.7,93,77,47,29.95,29.86,6,1,6,0.00
2012-9-25,70.0,58.0,49.5,49.7,45.5,40.4,83,65,37,29.95,29.86,13,2,13,0.00
2012-9-26,71.4,54.1,41.2,52.3,43.2,38.2,93,70,33,29.98,29.89,10,1,10,0.00
2012-9-27,71.2,53.7,42.4,52.1,43.7,38.8,91,72,36,29.98,29.86,6,0,6,0.00
2012-9-28,68.4,55.1,42.8,56.3,47.5,39.8,92,77,53,29.89,29.80,8,0,8,0.00
2012-9-29,68.2,58.0,50.4,54.6,47.0,41.4,88,69,42,30.07,29.89,12,2,12,0.00
2012-9-30,70.2,55.9,48.7,43.8,40.1,36.0,77,58,30,30.19,30.07,10,1,10,0.00
2012-10-1,77.0,58.4,43.3,53.4,45.1,37.0,87,64,37,30.19,29.89,15,2,15,0.00
2012-10-2,63.9,53.0,36.5,48.0,31.9,21.0,65,46,27,30.13,29.89,13,2,13,0.00
2012-10-3,57.9,40.5,28.8,30.0,24.0,19.5,74,54,32,30.27,30.13,8,1,8,0.00
2012-10-4,57.7,39.9,28.8,33.3,25.8,22.3,82,60,32,30.19,30.13,8,1,8,0.00
2012-10-5,58.1,40.0,28.2,32.2,24.5,19.8,81,58,29,30.24,30.16,8,1,8,0.00
2012-10-6,61.9,41.3,28.8,32.3,25.5,19.5,78,56,29,30.22,30.07,8,0,8,0.00
2012-10-7,66.6,44.3,32.2,40.9,30.9,25.8,86,63,27,30.10,29.86,6,0,6,0.00
2012-10-8,68.0,47.6,34.9,45.5,35.8,29.4,88,66,32,29.89,29.80,7,0,7,0.00
2012-10-9,69.3,50.1,38.7,48.7,39.5,35.4,92,70,35,29.98,29.86,6,0,6,0.00
2012-10-10,69.4,50.6,39.0,46.7,38.5,36.0,92,67,32,29.89,29.74,10,0,10,0.00
2012-10-11,67.3,47.6,36.1,46.0,37.6,32.4,90,71,35,29.86,29.68,8,0,8,0.00
2012-10-12,58.5,50.0,38.7,47.0,41.0,34.8,89,72,48,29.83,29.65,9,1,9,0.00
2012-10-13,59.0,53.4,48.4,52.2,49.0,45.9,93,85,71,30.01,29.80,10,1,10,0.12
2012-10-14,58.1,53.9,52.0,55.5,51.7,49.7,93,92,91,29.98,29.77,0,0,0,0.39
2012-10-15,55.2,51.2,48.6,52.6,49.0,46.6,93,92,91,29.80,29.48,6,0,6,0.31
2012-10-16,50.2,43.3,38.7,48.0,40.9,35.0,95,91,80,30.01,29.45,23,2,23,0.28
2012-10-17,50.0,41.6,34.2,42.1,37.4,31.5,94,85,66,30.13,30.01,10,0,10,0.00
2012-10-18,53.8,44.5,37.4,45.8,39.9,35.6,94,85,58,30.10,29.71,6,0,6,0.12
2012-10-19,56.1,47.6,41.0,52.3,44.3,37.4,94,88,74,29.74,29.54,12,2,12,0.20
2012-10-20,42.8,36.6,29.1,40.8,33.3,26.4,95,88,71,29.71,29.57,10,1,10,0.08
2012-10-21,42.4,33.6,28.0,39.1,31.4,26.3,95,92,84,29.74,29.68,5,0,5,0.08
2012-10-22,36.1,33.8,31.1,34.8,32.5,29.3,96,95,93,29.68,29.45,6,0,6,0.24
2012-10-23,41.5,36.0,33.1,40.0,34.8,31.9,96,95,94,29.77,29.51,4,0,4,0.08
2012-10-24,37.6,35.7,34.3,36.3,34.5,33.3,96,95,95,29.98,29.77,4,0,4,0.08
2012-10-25,43.2,38.2,32.2,41.5,36.9,31.2,96,95,94,30.24,29.98,4,0,4,0.00
2012-10-26,40.6,36.5,33.1,39.0,35.3,32.1,96,95,94,30.22,29.92,3,0,3,0.24
2012-10-27,38.7,35.8,33.1,37.3,34.6,32.1,96,95,95,29.92,29.71,0,0,0,0.31
2012-10-28,54.3,46.8,35.2,47.5,41.7,34.2,96,83,56,29.77,29.68,13,2,13,0.08
2012-10-29,51.8,45.1,41.4,48.8,42.9,39.8,94,92,85,29.86,29.65,10,0,10,0.59
2012-10-30,49.1,45.9,42.4,46.9,43.9,40.8,94,93,92,29.86,29.74,3,0,3,0.24
2012-10-31,51.4,48.3,45.9,48.9,46.0,44.0,93,92,91,29.74,29.57,5,0,5,0.12
2012-11-1,49.5,45.9,43.9,47.1,43.8,42.0,93,93,91,29.89,29.65,0,0,0,0.08
2012-11-2,48.0,43.9,38.8,45.8,42.0,37.3,94,93,92,29.95,29.89,6,0,6,0.08
2012-11-3,50.5,46.8,43.7,48.0,44.5,41.8,93,92,90,30.01,29.89,8,0,8,0.00
2012-11-4,53.2,49.5,47.1,50.4,46.8,44.6,92,91,90,30.13,30.01,0,0,3,0.12
2012-11-5,54.7,48.2,37.6,51.5,43.8,35.6,93,85,73,30.19,30.04,12,1,12,0.04
2012-11-6,49.1,40.8,32.4,45.5,38.3,31.1,95,91,71,30.07,29.77,10,1,10,0.00
2012-11-7,44.6,38.2,28.9,39.3,32.9,26.6,93,81,66,29.92,29.80,11,1,11,0.04
2012-11-8,39.7,32.2,28.0,36.2,29.9,26.3,94,91,87,29.83,29.62,4,0,4,0.04
2012-11-9,37.0,31.9,28.6,33.2,29.3,26.5,94,90,81,29.77,29.65,6,0,6,0.04
2012-11-10,33.1,30.9,27.7,30.1,27.3,24.5,92,86,73,30.01,29.77,5,0,5,0.04
2012-11-11,32.2,28.5,25.9,27.3,25.1,23.4,91,87,77,30.10,30.01,0,0,0,0.00
2012-11-12,34.5,30.4,27.9,32.4,28.6,25.6,94,93,91,30.10,30.01,0,0,0,0.51
2012-11-13,34.0,32.1,30.7,32.7,30.9,29.5,95,95,94,30.10,30.01,4,0,4,0.04
2012-11-14,36.1,33.4,32.4,34.6,32.1,31.1,95,95,94,30.16,30.01,4,0,4,0.04
2012-11-15,33.4,33.0,32.2,32.2,31.7,30.9,95,95,95,30.16,29.86,4,0,4,0.00
2012-11-16,34.3,33.2,32.4,33.1,31.9,31.1,95,95,95,29.86,29.74,0,0,0,0.00
2012-11-17,34.7,33.4,32.4,33.4,32.1,31.1,95,95,95,29.74,29.45,8,0,8,0.28
2012-11-18,36.5,33.4,30.6,34.9,32.1,29.3,95,95,94,29.68,29.54,6,0,6,0.31
2012-11-19,36.3,35.2,34.0,34.8,33.8,32.7,95,95,94,29.59,29.42,6,0,6,0.71
2012-11-20,40.5,35.2,31.8,38.6,33.8,30.5,95,94,93,29.62,29.48,5,0,5,0.08
2012-11-21,36.7,33.6,32.4,35.1,32.3,31.1,95,95,94,30.04,29.45,8,0,8,0.12
2012-11-22,34.9,32.9,30.2,33.6,31.6,29.1,96,95,95,30.22,30.04,0,0,0,0.00
2012-11-23,34.7,33.3,32.7,33.4,32.0,31.5,95,95,95,30.19,29.89,4,0,4,0.47
2012-11-24,36.9,32.9,29.1,35.3,31.6,27.9,95,95,94,30.04,29.89,6,0,6,0.00
2012-11-25,32.4,28.2,25.5,31.1,27.1,24.5,96,96,95,30.16,30.01,0,0,0,0.00
2012-11-26,31.6,26.2,22.8,30.1,25.2,22.1,97,96,94,30.16,30.01,0,0,0,0.00
2012-11-27,31.1,29.4,27.0,29.6,28.0,25.7,95,95,94,30.07,29.95,0,0,0,0.00
2012-11-28,32.7,30.4,27.3,31.2,28.9,26.1,95,94,94,29.95,29.68,0,0,0,0.12
2012-11-29,33.1,31.8,30.4,31.5,30.3,28.9,94,94,94,29.71,29.48,0,0,0,0.08
2012-11-30,34.5,33.1,32.4,32.7,31.5,30.8,94,94,93,29.48,29.39,0,0,0,0.12
2012-12-1,38.7,34.0,32.7,36.5,32.4,31.2,94,94,92,29.51,29.30,5,0,5,0.08
2012-12-2,36.9,33.8,32.7,35.0,32.2,31.2,94,94,93,29.62,29.12,10,0,10,0.35
2012-12-3,38.8,34.8,32.7,36.7,33.0,31.2,94,93,92,29.86,29.62,6,0,6,0.08
2012-12-4,37.8,35.5,33.6,35.7,33.6,32.0,94,93,92,29.68,29.57,9,0,9,0.55
2012-12-5,37.8,33.8,30.9,34.5,31.3,29.1,94,91,78,30.01,29.59,9,1,9,0.00
2012-12-6,33.1,32.0,30.4,31.5,30.3,28.6,94,93,93,29.98,29.80,0,0,0,0.20
2012-12-7,33.1,31.4,27.0,31.3,29.6,25.5,94,93,93,29.89,29.68,0,0,0,0.67
2012-12-8,31.1,27.9,26.1,29.3,26.4,24.6,94,94,93,30.13,29.86,0,0,0,0.12
2012-12-9,32.4,29.1,26.4,30.6,27.4,24.9,94,93,93,30.19,30.01,0,0,0,0.12
2012-12-10,38.8,33.6,31.1,36.0,31.6,29.3,93,92,87,30.13,29.86,13,1,13,0.12
2012-12-11,35.8,32.7,30.2,33.7,30.8,28.4,93,93,92,29.86,29.42,6,0,6,0.12
2012-12-12,33.1,32.1,30.6,31.0,30.1,28.5,93,92,92,29.83,29.45,3,0,3,0.00
2012-12-13,32.0,29.2,27.5,29.9,27.3,25.8,93,93,92,29.86,29.68,0,0,0,0.00
2012-12-14,32.2,28.5,26.1,30.1,26.7,24.3,93,93,92,29.77,29.62,4,0,4,0.04
2012-12-15,28.6,27.0,25.2,26.6,25.2,23.4,93,93,92,29.74,29.45,0,0,0,0.04
2012-12-16,32.4,27.4,23.7,30.3,25.6,22.0,94,93,92,29.57,29.03,0,0,0,0.28
2012-12-17,32.7,29.3,24.6,30.7,27.4,23.1,94,92,92,29.65,28.97,0,0,0,0.83
2012-12-18,24.4,19.4,13.8,23.0,17.9,12.2,95,94,93,29.80,29.65,0,0,0,0.00
2012-12-19,22.6,19.5,13.6,20.9,17.7,12.0,93,92,92,29.80,29.59,0,0,0,0.00
2012-12-20,31.3,26.0,22.6,29.2,24.2,20.9,93,93,92,29.68,29.48,0,0,0,0.00
2012-12-21,29.3,24.3,17.6,27.3,22.4,16.1,94,93,92,29.74,29.65,0,0,0,0.00
2012-12-23,29.7,29.5,27.9,27.6,27.5,25.8,92,92,92,29.65,29.51,0,0,0,0.00
2012-12-24,32.0,27.8,25.3,29.7,25.9,23.6,93,92,91,29.95,29.92,0,0,0,0.00
2012-12-25,27.9,25.9,25.2,25.8,24.0,23.2,93,92,92,29.95,29.65,0,0,0,0.00
2012-12-26,31.3,29.0,25.9,29.0,26.9,23.9,92,91,91,29.77,29.62,0,0,0,0.00
2012-12-27,31.8,27.9,25.5,29.5,25.8,23.5,92,92,91,29.98,29.77,0,0,0,0.00
2012-12-28,28.4,26.3,24.4,26.4,24.4,22.7,93,92,92,30.04,29.98,0,0,0,0.00
2012-12-29,28.2,25.1,23.2,26.2,23.2,21.2,93,92,92,30.04,29.92,0,0,0,0.12
2012-12-30,28.8,25.0,22.6,26.5,23.2,20.9,93,93,91,30.13,30.04,0,0,0,0.00
2012-12-31,23.7,22.5,21.7,21.7,20.6,20.0,93,93,92,30.27,30.10,0,0,0,0.00
2013-1-1,23.0,21.5,19.4,21.0,19.5,17.5,92,92,91,30.39,30.27,0,0,0,0.00